Time;durP1;ratioP1;P1;durP2;ratioP2;P2;SDS_P1;SDS_P2;PMS_P1;PMS_P2;Temp;Humidity;BMP_temperature;BMP_pressure;BME280_temperature;BME280_humidity;BME280_pressure;Samples;Min_cycle;Max_cycle;Signal;HPM_P1;HPM_P2
2021/12/21 00:08:49;;;;;;;18.83;10.03;;;1.10;88.50;;;;;;20836885;28;20205;-72
2021/12/21 00:19:09;;;;;;;20.97;9.57;;;1.10;88.30;;;;;;20835567;28;20234;-71
2021/12/21 00:29:12;;;;;;;20.80;9.70;;;1.00;88.40;;;;;;20834740;28;20260;-71
2021/12/21 00:39:15;;;;;;;22.83;10.47;;;0.90;89.10;;;;;;20833891;28;20238;-70
2021/12/21 00:49:17;;;;;;;19.23;9.97;;;1.00;88.80;;;;;;20832739;28;20215;-71
2021/12/21 00:59:19;;;;;;;24.43;9.67;;;0.80;88.20;;;;;;20832455;28;20242;-71
2021/12/21 01:09:55;;;;;;;20.13;9.90;;;0.80;88.80;;;;;;20832481;28;20207;-70
2021/12/21 01:20:00;;;;;;;16.63;8.97;;;0.80;88.30;;;;;;20831036;28;20242;-72
2021/12/21 01:40:37;;;;;;;17.97;9.10;;;0.80;88.90;;;;;;20829926;28;20339;-72
2021/12/21 01:50:39;;;;;;;22.03;10.50;;;0.70;89.00;;;;;;20830183;28;20264;-71
2021/12/21 02:00:41;;;;;;;22.17;10.73;;;0.70;89.20;;;;;;20831551;28;20234;-71
2021/12/21 02:10:43;;;;;;;21.27;8.73;;;0.50;88.50;;;;;;20845503;28;20543;-71
2021/12/21 02:20:54;;;;;;;18.93;8.90;;;0.40;89.00;;;;;;20845112;28;20265;-71
2021/12/21 02:30:56;;;;;;;16.93;7.80;;;0.40;89.20;;;;;;20843801;28;20210;-72
2021/12/21 02:40:58;;;;;;;14.93;7.73;;;0.30;89.30;;;;;;20842899;28;20571;-72
2021/12/21 02:51:01;;;;;;;12.77;6.53;;;0.30;88.90;;;;;;20842842;28;20220;-72
2021/12/21 03:01:03;;;;;;;17.03;7.47;;;0.30;89.30;;;;;;20841619;28;20237;-72
2021/12/21 03:11:16;;;;;;;12.67;7.13;;;0.30;88.90;;;;;;20840393;28;20205;-70
2021/12/21 03:21:18;;;;;;;14.67;7.00;;;0.20;89.10;;;;;;20839782;28;20243;-69
2021/12/21 03:31:20;;;;;;;15.27;6.40;;;0.30;89.00;;;;;;20837355;28;20244;-72
2021/12/21 03:41:24;;;;;;;14.30;7.30;;;0.20;88.80;;;;;;20838512;28;20296;-72
2021/12/21 03:51:26;;;;;;;12.67;6.70;;;0.10;88.70;;;;;;20838407;28;20263;-72
2021/12/21 04:01:27;;;;;;;12.63;6.53;;;0.00;88.50;;;;;;20836931;28;20310;-72
2021/12/21 04:11:29;;;;;;;13.77;6.50;;;0.10;89.00;;;;;;20836205;28;20212;-72
2021/12/21 04:21:31;;;;;;;14.07;6.73;;;0.00;88.70;;;;;;20835731;28;20233;-71
2021/12/21 04:31:33;;;;;;;10.90;6.33;;;-0.10;88.20;;;;;;20833875;28;20216;-70
2021/12/21 04:41:34;;;;;;;10.77;5.93;;;0.00;88.50;;;;;;20833343;28;20266;-70
2021/12/21 04:51:43;;;;;;;11.70;5.87;;;0.10;88.10;;;;;;20833444;28;20297;-70
2021/12/21 05:01:45;;;;;;;14.93;6.20;;;0.00;87.90;;;;;;20832375;28;20288;-72
2021/12/21 05:11:46;;;;;;;16.17;6.83;;;0.10;87.90;;;;;;20831920;28;20252;-71
2021/12/21 05:21:48;;;;;;;13.10;6.23;;;-0.10;87.50;;;;;;20830813;28;20240;-71
2021/12/21 05:31:50;;;;;;;13.27;6.97;;;-0.20;87.00;;;;;;20828245;28;20271;-71
2021/12/21 05:41:56;;;;;;;13.03;5.93;;;-0.30;87.90;;;;;;20829592;28;20238;-71
2021/12/21 05:51:57;;;;;;;13.47;6.93;;;-0.10;88.00;;;;;;20830016;28;20234;-71
2021/12/21 06:01:59;;;;;;;20.37;7.10;;;-0.20;87.30;;;;;;20828623;28;20244;-72
2021/12/21 06:12:12;;;;;;;17.83;7.17;;;-0.30;87.60;;;;;;20828570;28;20212;-72
2021/12/21 06:32:34;;;;;;;23.55;9.55;;;-0.40;87.10;;;;;;20846167;28;20585;-72
2021/12/21 06:42:38;;;;;;;15.10;7.27;;;-0.10;86.90;;;;;;20900262;28;20589;-71
2021/12/21 06:52:41;;;;;;;17.30;7.37;;;-0.60;86.70;;;;;;20904268;28;20217;-71
2021/12/21 07:02:43;;;;;;;16.37;6.97;;;-0.50;86.60;;;;;;20904772;28;20263;-71
2021/12/21 07:22:46;;;;;;;23.07;10.20;;;-0.50;87.10;;;;;;20906732;28;20464;-72
2021/12/21 07:32:48;;;;;;;20.33;8.70;;;-0.50;86.50;;;;;;20915210;28;20208;-71
2021/12/21 07:42:50;;;;;;;19.33;9.47;;;-0.60;86.30;;;;;;20918672;28;20274;-71
2021/12/21 07:52:54;;;;;;;26.67;8.87;;;-0.70;86.20;;;;;;20918070;28;20199;-71
2021/12/21 08:02:57;;;;;;;20.47;10.07;;;-0.60;86.40;;;;;;20907464;28;20231;-71
2021/12/21 08:12:59;;;;;;;23.47;10.00;;;-0.50;86.50;;;;;;20915363;28;20647;-72
2021/12/21 08:23:01;;;;;;;19.67;8.80;;;-0.30;86.60;;;;;;20913828;28;20228;-69
2021/12/21 08:33:03;;;;;;;17.17;9.03;;;-0.20;86.70;;;;;;20914945;28;20551;-72
2021/12/21 08:43:08;;;;;;;22.80;9.80;;;0.00;87.00;;;;;;20913747;28;20297;-74
2021/12/21 08:53:12;;;;;;;26.00;9.23;;;0.30;87.70;;;;;;20913155;28;20240;-67
2021/12/21 09:03:14;;;;;;;22.23;8.57;;;0.60;88.00;;;;;;20912808;28;20234;-66
2021/12/21 09:13:16;;;;;;;19.87;8.40;;;0.90;88.30;;;;;;20911746;28;20207;-69
2021/12/21 09:23:18;;;;;;;18.57;9.17;;;1.00;88.90;;;;;;20908166;28;20625;-66
2021/12/21 09:33:20;;;;;;;20.53;9.70;;;1.00;88.50;;;;;;20909855;28;20261;-67
2021/12/21 09:43:22;;;;;;;23.47;10.00;;;1.30;88.60;;;;;;20909986;28;20293;-63
2021/12/21 09:53:26;;;;;;;17.93;8.00;;;1.40;89.10;;;;;;20909869;28;20208;-66
2021/12/21 10:03:28;;;;;;;24.60;10.07;;;1.50;89.10;;;;;;20910138;28;20594;-66
2021/12/21 10:13:34;;;;;;;25.43;8.80;;;1.80;88.50;;;;;;20909356;28;20211;-65
2021/12/21 10:23:38;;;;;;;21.47;9.10;;;1.80;89.30;;;;;;20913586;28;20234;-63
2021/12/21 10:33:44;;;;;;;16.93;7.90;;;1.90;88.60;;;;;;20924045;28;20273;-63
2021/12/21 10:44:00;;;;;;;28.67;7.20;;;1.90;89.20;;;;;;20921665;28;20255;-63
2021/12/21 10:54:03;;;;;;;15.00;6.57;;;2.30;88.90;;;;;;20922198;28;20199;-63
2021/12/21 11:04:12;;;;;;;15.33;6.93;;;2.40;89.50;;;;;;20920938;28;20232;-64
2021/12/21 11:14:17;;;;;;;15.57;7.67;;;2.60;89.30;;;;;;20920946;28;20667;-63
2021/12/21 11:24:19;;;;;;;18.60;8.03;;;2.70;89.40;;;;;;20895176;28;20235;-63
2021/12/21 11:34:24;;;;;;;14.23;7.50;;;3.10;89.70;;;;;;20917958;28;20204;-70
2021/12/21 11:44:49;;;;;;;14.37;7.63;;;3.40;89.40;;;;;;20919244;28;20238;-66
2021/12/21 11:54:55;;;;;;;15.63;7.67;;;3.70;89.30;;;;;;20919013;28;20659;-66
2021/12/21 12:04:57;;;;;;;11.43;7.13;;;3.80;88.50;;;;;;20915748;28;20232;-67
2021/12/21 12:15:01;;;;;;;24.47;14.47;;;4.20;88.70;;;;;;20917520;28;20212;-68
2021/12/21 12:25:05;;;;;;;14.73;7.20;;;4.30;87.70;;;;;;20916465;28;20293;-66
2021/12/21 12:35:10;;;;;;;12.80;6.63;;;4.40;87.20;;;;;;20916943;28;20254;-65
2021/12/21 12:45:15;;;;;;;18.13;6.63;;;4.60;86.70;;;;;;20914534;28;20247;-64
2021/12/21 12:55:18;;;;;;;18.70;6.43;;;4.70;86.30;;;;;;20912824;28;20265;-64
2021/12/21 13:05:28;;;;;;;16.10;6.20;;;4.70;85.80;;;;;;20913506;28;20607;-64
2021/12/21 13:15:45;;;;;;;17.17;6.10;;;4.70;85.70;;;;;;20913047;28;20266;-67
2021/12/21 13:25:56;;;;;;;15.50;7.93;;;4.70;84.70;;;;;;20874475;28;20240;-65
2021/12/21 13:36:05;;;;;;;12.77;8.47;;;4.70;85.40;;;;;;20827959;28;20625;-67
2021/12/21 13:46:08;;;;;;;13.83;8.27;;;4.80;85.30;;;;;;20828457;28;20240;-67
2021/12/21 13:56:14;;;;;;;24.40;12.10;;;4.80;85.30;;;;;;20831765;28;20266;-67
2021/12/21 14:06:21;;;;;;;15.63;9.20;;;4.90;85.10;;;;;;20845170;28;20302;-67
2021/12/21 14:16:28;;;;;;;19.67;9.70;;;4.70;84.10;;;;;;20844453;28;20204;-70
2021/12/21 14:26:38;;;;;;;11.63;6.27;;;4.40;85.10;;;;;;20842030;28;20247;-70
2021/12/21 14:36:40;;;;;;;15.17;7.23;;;4.20;85.30;;;;;;20841317;28;20204;-69
2021/12/21 14:47:01;;;;;;;20.83;12.33;;;4.10;85.50;;;;;;20839576;28;20511;-65
2021/12/21 14:57:09;;;;;;;19.90;10.17;;;3.80;85.30;;;;;;20841383;28;20609;-68
2021/12/21 15:07:10;;;;;;;14.77;7.03;;;3.50;85.80;;;;;;20840225;28;20289;-65
2021/12/21 15:17:12;;;;;;;16.00;8.40;;;3.50;86.50;;;;;;20839951;28;20209;-66
2021/12/21 15:27:13;;;;;;;16.50;10.20;;;3.40;86.70;;;;;;20838696;28;20236;-65
2021/12/21 15:37:15;;;;;;;19.87;11.30;;;3.10;87.00;;;;;;20867283;28;20212;-63
2021/12/21 15:47:19;;;;;;;16.80;8.97;;;3.00;87.70;;;;;;20889085;28;20244;-65
2021/12/21 15:57:22;;;;;;;18.43;8.77;;;2.70;87.80;;;;;;20837391;28;20575;-66
2021/12/21 16:07:24;;;;;;;20.83;10.63;;;2.70;87.90;;;;;;20909542;28;20687;-66
2021/12/21 16:17:26;;;;;;;21.90;10.17;;;2.50;88.50;;;;;;20918200;28;20721;-65
2021/12/21 16:27:27;;;;;;;24.40;11.50;;;2.40;89.00;;;;;;20916120;28;20761;-67
2021/12/21 16:37:29;;;;;;;22.27;10.87;;;2.40;89.60;;;;;;20896464;28;20212;-65
2021/12/21 16:47:31;;;;;;;20.87;12.60;;;2.20;89.20;;;;;;20864855;28;20246;-66
2021/12/21 16:57:33;;;;;;;24.40;12.57;;;2.00;90.00;;;;;;20882862;28;20216;-64
2021/12/21 17:07:35;;;;;;;21.03;10.77;;;1.80;89.90;;;;;;20913856;28;20295;-69
2021/12/21 17:17:37;;;;;;;20.13;10.37;;;1.90;90.40;;;;;;20913871;28;20266;-65
2021/12/21 17:27:39;;;;;;;22.70;11.67;;;1.70;90.30;;;;;;20912708;28;20233;-64
2021/12/21 17:37:43;;;;;;;24.63;11.57;;;1.70;90.60;;;;;;20890653;28;20731;-69
2021/12/21 17:47:46;;;;;;;22.13;11.70;;;1.60;90.30;;;;;;20829339;28;20239;-66
2021/12/21 17:57:48;;;;;;;21.87;12.73;;;1.50;90.30;;;;;;20829333;28;20214;-64
2021/12/21 18:07:50;;;;;;;20.30;11.17;;;1.30;90.40;;;;;;20864405;28;20229;-68
2021/12/21 18:17:52;;;;;;;25.40;12.27;;;1.30;90.50;;;;;;20911296;28;20225;-65
2021/12/21 18:27:56;;;;;;;23.27;12.57;;;1.20;90.70;;;;;;20909052;28;20261;-66
2021/12/21 18:37:58;;;;;;;22.67;13.07;;;1.30;90.80;;;;;;20980783;28;20227;-64
2021/12/21 18:48:00;;;;;;;26.93;15.37;;;1.40;90.60;;;;;;20882473;28;20238;-69
2021/12/21 18:58:03;;;;;;;62.10;24.27;;;1.00;90.50;;;;;;20842043;28;20675;-66
2021/12/21 19:08:06;;;;;;;25.40;14.23;;;0.90;90.70;;;;;;20841035;28;20238;-67
2021/12/21 19:18:07;;;;;;;23.90;13.47;;;1.00;90.70;;;;;;20841181;28;20210;-66
2021/12/21 19:28:09;;;;;;;26.50;15.13;;;1.00;90.60;;;;;;20840112;28;20229;-72
2021/12/21 19:38:12;;;;;;;31.80;12.90;;;0.80;90.40;;;;;;20838997;28;20782;-73
2021/12/21 19:48:14;;;;;;;27.13;13.73;;;0.70;90.30;;;;;;20870424;28;20312;-65
2021/12/21 19:58:16;;;;;;;26.27;13.83;;;0.70;90.50;;;;;;20837719;28;20664;-67
2021/12/21 20:08:18;;;;;;;28.13;13.70;;;0.60;90.40;;;;;;20836859;28;20238;-63
2021/12/21 20:18:20;;;;;;;25.07;13.80;;;0.60;90.40;;;;;;20836276;28;20212;-63
2021/12/21 20:28:22;;;;;;;25.67;13.77;;;0.60;90.30;;;;;;20845539;28;20241;-64
2021/12/21 20:38:24;;;;;;;25.77;13.90;;;0.40;90.10;;;;;;20913820;28;20294;-62
2021/12/21 20:48:27;;;;;;;30.60;15.70;;;0.20;90.40;;;;;;20854716;28;20566;-62
2021/12/21 20:58:28;;;;;;;30.73;16.17;;;0.30;90.40;;;;;;20832861;28;20970;-76
2021/12/21 21:08:31;;;;;;;25.27;13.90;;;0.30;90.20;;;;;;20831493;28;20488;-72
2021/12/21 21:18:34;;;;;;;27.03;15.17;;;0.30;90.00;;;;;;20840949;28;20196;-71
2021/12/21 21:28:36;;;;;;;29.17;14.67;;;0.10;89.50;;;;;;20913428;28;21341;-70
2021/12/21 21:38:37;;;;;;;25.50;14.07;;;0.20;90.00;;;;;;20930050;28;20793;-63
2021/12/21 21:48:39;;;;;;;28.43;14.70;;;0.20;89.60;;;;;;20995366;28;20227;-63
2021/12/21 21:58:50;;;;;;;32.57;15.37;;;0.10;89.60;;;;;;20995324;28;20389;-63
2021/12/21 22:08:52;;;;;;;31.43;15.97;;;-0.10;88.70;;;;;;20994491;28;20372;-63
2021/12/21 22:18:54;;;;;;;28.97;14.83;;;-0.10;88.80;;;;;;21000344;28;20204;-66
2021/12/21 22:28:56;;;;;;;27.73;14.53;;;-0.20;88.90;;;;;;21010096;28;20775;-65
2021/12/21 22:38:58;;;;;;;28.53;14.70;;;-0.20;89.20;;;;;;21009108;28;20240;-75
2021/12/21 22:48:59;;;;;;;27.67;14.53;;;-0.40;89.00;;;;;;21008765;28;20297;-63
2021/12/21 22:59:01;;;;;;;26.13;13.70;;;-0.40;88.50;;;;;;21007703;28;20203;-63
2021/12/21 23:09:03;;;;;;;25.90;12.73;;;-0.50;88.80;;;;;;21006951;28;20231;-64
2021/12/21 23:19:05;;;;;;;27.10;12.83;;;-0.40;89.00;;;;;;20933045;28;20257;-70
2021/12/21 23:29:06;;;;;;;27.47;12.73;;;-0.60;88.80;;;;;;20836781;28;20236;-75
2021/12/21 23:39:09;;;;;;;25.30;12.10;;;-0.50;88.00;;;;;;20839858;28;20241;-64
2021/12/21 23:49:11;;;;;;;24.77;12.63;;;-0.60;88.10;;;;;;20839487;28;20653;-63
2021/12/21 23:59:13;;;;;;;20.30;11.23;;;-0.90;88.10;;;;;;20838182;28;20209;-67
